Time;durP1;ratioP1;P1;durP2;ratioP2;P2;SDS_P1;SDS_P2;PMS_P1;PMS_P2;Temp;Humidity;BMP_temperature;BMP_pressure;BME280_temperature;BME280_humidity;BME280_pressure;Samples;Min_cycle;Max_cycle;Signal;HPM_P1;HPM_P2
2022/02/02 00:00:34;;;;;;;1.92;0.95;;;;;;;3.12;100.00;97649.75;4186007;28;20040;-71
2022/02/02 00:02:44;;;;;;;3.05;1.13;;;;;;;3.18;100.00;97660.09;4186582;28;20036;-71
2022/02/02 00:04:48;;;;;;;4.75;1.17;;;;;;;3.15;100.00;97660.00;4186763;28;20438;-71
2022/02/02 00:07:06;;;;;;;5.45;1.35;;;;;;;3.18;100.00;97659.31;4185473;28;20381;-71
2022/02/02 00:09:12;;;;;;;6.35;1.00;;;;;;;3.14;100.00;97659.19;4185774;28;20127;-72
2022/02/02 00:13:38;;;;;;;8.25;1.92;;;;;;;3.12;100.00;97679.81;4186349;28;20304;-72
2022/02/02 00:15:51;;;;;;;6.50;1.45;;;;;;;3.09;100.00;97686.78;4185286;28;20798;-72
2022/02/02 00:18:38;;;;;;;5.93;1.73;;;;;;;3.11;100.00;97706.38;4185139;28;20444;-71
2022/02/02 00:20:21;;;;;;;4.80;1.55;;;;;;;3.11;100.00;97700.91;4183781;28;20052;-71
2022/02/02 00:22:28;;;;;;;7.10;1.70;;;;;;;3.18;100.00;97727.63;4186045;28;20317;-71
2022/02/02 00:24:37;;;;;;;6.22;1.67;;;;;;;3.22;100.00;97729.31;4186422;28;20036;-72
2022/02/02 00:26:42;;;;;;;7.40;2.20;;;;;;;3.23;100.00;97727.41;4184605;28;20098;-72
2022/02/02 00:28:47;;;;;;;7.20;1.63;;;;;;;3.25;100.00;97725.09;4185088;28;20036;-72
2022/02/02 00:30:47;;;;;;;9.27;1.92;;;;;;;3.23;100.00;97732.88;4185140;28;20091;-72
2022/02/02 00:35:08;;;;;;;6.75;1.60;;;;;;;3.29;100.00;97750.59;4185162;28;20079;-72
2022/02/02 00:37:08;;;;;;;7.57;1.52;;;;;;;3.21;100.00;97744.13;4185175;28;20524;-72
2022/02/02 00:39:09;;;;;;;7.13;1.42;;;;;;;3.29;99.92;97723.25;4186244;28;20083;-72
2022/02/02 00:41:09;;;;;;;21.65;1.92;;;;;;;3.16;100.00;97732.66;4185908;28;20068;-71
2022/02/02 00:43:09;;;;;;;5.95;1.63;;;;;;;3.13;99.89;97715.00;4185743;28;20029;-71
2022/02/02 00:45:10;;;;;;;6.30;1.40;;;;;;;3.15;99.41;97718.22;4186031;28;20455;-71
2022/02/02 00:47:16;;;;;;;7.13;1.58;;;;;;;3.11;99.67;97711.84;4184385;28;20078;-71
2022/02/02 00:49:17;;;;;;;6.00;1.70;;;;;;;3.16;98.86;97722.53;4184271;28;20090;-71
2022/02/02 00:51:23;;;;;;;5.85;1.65;;;;;;;3.13;98.89;97731.41;4184437;28;20058;-71
2022/02/02 00:53:23;;;;;;;8.40;1.70;;;;;;;3.15;98.51;97736.53;4184428;28;20182;-71
2022/02/02 00:55:23;;;;;;;10.00;1.75;;;;;;;3.12;98.10;97735.28;4185751;28;20247;-71
2022/02/02 00:57:27;;;;;;;9.20;1.80;;;;;;;3.14;97.41;97735.72;4184673;28;20494;-71
2022/02/02 00:59:28;;;;;;;13.73;2.00;;;;;;;3.17;96.31;97745.97;4185350;28;20413;-71
2022/02/02 01:01:28;;;;;;;9.20;1.83;;;;;;;3.21;95.52;97749.59;4185301;28;20425;-71
2022/02/02 01:03:30;;;;;;;11.05;2.42;;;;;;;3.18;95.52;97754.97;4185565;28;20062;-71
2022/02/02 01:05:30;;;;;;;7.35;1.92;;;;;;;3.22;94.70;97755.84;4185283;28;20033;-71
2022/02/02 01:08:02;;;;;;;10.10;2.45;;;;;;;3.29;93.87;97750.59;4184691;28;20111;-71
2022/02/02 01:10:13;;;;;;;8.80;2.15;;;;;;;3.29;92.26;97745.91;4184948;28;20572;-71
2022/02/02 01:19:00;;;;;;;8.60;1.80;;;;;;;3.32;92.01;97766.31;4184126;28;20079;-71
2022/02/02 01:21:04;;;;;;;11.68;2.35;;;;;;;3.27;92.78;97777.50;4185603;28;20084;-71
2022/02/02 01:27:51;;;;;;;10.88;2.38;;;;;;;3.36;91.25;97773.47;4183606;28;20131;-72
2022/02/02 01:29:51;;;;;;;11.18;2.13;;;;;;;3.29;92.06;97759.59;4185408;28;20048;-71
2022/02/02 01:31:53;;;;;;;8.93;2.30;;;;;;;3.21;93.83;97779.66;4184405;28;20048;-71
2022/02/02 01:33:53;;;;;;;8.32;2.22;;;;;;;3.26;93.38;97782.16;4185648;28;20045;-71
2022/02/02 01:35:54;;;;;;;11.40;2.05;;;;;;;3.28;93.90;97788.09;4186307;28;20044;-71
2022/02/02 01:37:56;;;;;;;8.35;2.45;;;;;;;3.24;94.08;97778.19;4185192;28;20489;-71
2022/02/02 01:40:01;;;;;;;7.43;2.17;;;;;;;3.30;93.69;97788.53;4185686;28;20417;-71
2022/02/02 01:42:05;;;;;;;10.70;2.35;;;;;;;3.37;93.36;97796.13;4185315;28;20080;-71
2022/02/02 01:44:22;;;;;;;8.38;2.13;;;;;;;3.40;93.06;97787.25;4185250;28;20445;-71
2022/02/02 01:46:24;;;;;;;11.77;2.60;;;;;;;3.36;93.65;97768.00;4186333;28;20393;-71
2022/02/02 01:48:40;;;;;;;20.37;3.60;;;;;;;3.32;94.04;97774.53;4186039;28;20080;-71
2022/02/02 01:56:45;;;;;;;12.18;2.38;;;;;;;3.40;93.28;97757.19;4184448;28;20520;-72
2022/02/02 01:59:10;;;;;;;14.60;3.80;;;;;;;3.49;91.58;97760.56;4185739;28;20040;-71
2022/02/02 02:01:10;;;;;;;14.45;3.03;;;;;;;3.48;92.35;97764.44;4184991;28;20082;-72
2022/02/02 02:03:11;;;;;;;19.75;2.95;;;;;;;3.43;92.33;97751.00;4188182;28;20048;-71
2022/02/02 02:05:11;;;;;;;10.13;2.40;;;;;;;3.41;93.41;97752.50;4188953;28;20047;-71
2022/02/02 02:07:11;;;;;;;10.10;2.60;;;;;;;3.48;91.99;97758.97;4189062;28;20044;-71
2022/02/02 02:09:12;;;;;;;14.13;3.47;;;;;;;3.45;92.89;97745.19;4189092;28;20061;-71
2022/02/02 02:11:21;;;;;;;15.77;2.85;;;;;;;3.45;93.28;97737.78;4189561;28;20040;-71
2022/02/02 02:13:54;;;;;;;9.27;2.25;;;;;;;3.42;93.15;97734.94;4188614;28;20155;-71
2022/02/02 02:15:49;;;;;;;10.68;2.55;;;;;;;3.47;92.90;97735.47;4188261;28;20041;-71
2022/02/02 02:17:50;;;;;;;10.20;2.83;;;;;;;3.51;92.69;97735.59;4188229;28;20507;-71
2022/02/02 02:19:51;;;;;;;9.73;2.85;;;;;;;3.47;93.45;97723.75;4188386;28;20390;-71
2022/02/02 02:21:53;;;;;;;12.25;2.72;;;;;;;3.38;94.48;97721.97;4188540;28;20539;-71
2022/02/02 02:23:53;;;;;;;11.50;2.47;;;;;;;3.33;95.93;97733.16;4188325;28;20048;-71
2022/02/02 02:25:54;;;;;;;13.35;3.65;;;;;;;3.31;95.79;97732.72;4188753;28;20436;-72
2022/02/02 02:28:08;;;;;;;12.25;2.30;;;;;;;3.33;96.12;97724.97;4187690;28;20343;-71
2022/02/02 02:30:15;;;;;;;12.15;2.78;;;;;;;3.39;95.84;97714.53;4188462;28;20106;-71
2022/02/02 02:58:04;;;;;;;13.88;3.50;;;;;;;3.51;96.63;97736.38;4186923;28;20044;-72
2022/02/02 03:29:42;;;;;;;9.80;2.03;;;;;;;3.82;88.27;97784.91;4186591;28;20086;-71
2022/02/02 03:30:39;;;;;;;6.50;2.05;;;;;;;3.73;87.36;97784.25;4187662;28;20054;-71
2022/02/02 03:34:59;;;;;;;11.45;2.30;;;;;;;3.75;86.15;97783.91;4187668;28;20041;-71
2022/02/02 03:59:58;;;;;;;5.38;2.17;;;;;;;3.74;85.75;97812.41;4186868;28;20496;-72
2022/02/02 04:02:19;;;;;;;10.73;2.45;;;;;;;3.74;85.16;97794.06;4186447;28;20076;-72
2022/02/02 04:04:41;;;;;;;12.45;3.13;;;;;;;3.70;86.13;97789.63;4186067;28;20055;-72
2022/02/02 04:06:56;;;;;;;14.65;2.97;;;;;;;3.65;86.65;97783.28;4186429;28;20384;-72
2022/02/02 04:08:57;;;;;;;9.23;3.00;;;;;;;3.61;87.70;97789.78;4186839;28;20135;-71
2022/02/02 04:10:59;;;;;;;14.75;2.55;;;;;;;3.54;89.14;97792.31;4186866;28;20087;-71
2022/02/02 04:13:11;;;;;;;13.57;2.63;;;;;;;3.51;88.78;97814.91;4186854;28;20040;-71
2022/02/02 04:38:10;;;;;;;8.13;1.65;;;;;;;3.54;86.97;97845.06;4186501;28;20070;-72
2022/02/02 04:53:09;;;;;;;5.75;2.63;;;;;;;3.52;84.15;97833.69;4185896;28;20044;-72
2022/02/02 04:57:02;;;;;;;12.63;2.42;;;;;;;3.45;84.66;97840.91;4184796;28;20147;-72
2022/02/02 05:27:10;;;;;;;7.43;1.83;;;;;;;3.34;85.17;97844.13;4184399;28;20047;-71
2022/02/02 05:53:03;;;;;;;5.75;1.67;;;;;;;3.37;84.38;97865.28;4181938;28;20294;-71
2022/02/02 05:55:04;;;;;;;10.80;2.20;;;;;;;3.37;84.42;97873.50;4183300;28;20330;-71
2022/02/02 05:57:11;;;;;;;7.45;1.80;;;;;;;3.32;84.48;97884.69;4161994;27;20036;-71
2022/02/02 05:59:12;;;;;;;6.28;1.95;;;;;;;3.33;84.65;97890.97;4186768;28;20049;-71
2022/02/02 06:01:14;;;;;;;6.57;1.90;;;;;;;3.28;85.06;97872.84;4186491;28;20070;-72
2022/02/02 06:03:14;;;;;;;10.50;1.92;;;;;;;3.36;83.36;97877.38;4185547;28;20044;-72
2022/02/02 06:05:15;;;;;;;12.57;2.45;;;;;;;3.51;82.54;97878.59;4199120;28;20129;-72
2022/02/02 06:07:16;;;;;;;7.30;1.77;;;;;;;3.55;81.12;97871.28;4184986;28;20287;-72
2022/02/02 06:09:18;;;;;;;7.18;2.13;;;;;;;3.57;81.14;97879.97;4186998;28;20049;-71
2022/02/02 06:11:23;;;;;;;8.48;1.80;;;;;;;3.58;80.88;97875.28;4185865;28;20037;-71
2022/02/02 06:13:38;;;;;;;6.03;2.22;;;;;;;3.50;81.63;97871.53;4185079;28;20434;-71
2022/02/02 06:15:40;;;;;;;4.95;1.50;;;;;;;3.57;80.53;97895.56;4185777;28;20412;-71
2022/02/02 06:17:46;;;;;;;6.00;1.70;;;;;;;3.53;80.73;97905.59;4184858;28;20856;-71
2022/02/02 06:19:46;;;;;;;14.15;2.22;;;;;;;3.40;81.05;97902.13;4185313;28;20404;-71
2022/02/02 06:21:58;;;;;;;5.30;1.63;;;;;;;3.43;80.43;97923.28;4185309;28;20056;-71
2022/02/02 06:24:19;;;;;;;10.30;1.83;;;;;;;3.44;79.63;97949.50;4184489;28;20051;-71
2022/02/02 06:26:23;;;;;;;4.18;1.67;;;;;;;3.49;78.81;97954.75;4183501;28;20323;-71
2022/02/02 06:28:25;;;;;;;2.47;1.23;;;;;;;3.47;78.56;97953.47;4185040;28;20047;-71
2022/02/02 06:30:27;;;;;;;9.65;1.63;;;;;;;3.41;79.10;97968.53;4186067;28;20052;-71
2022/02/02 06:32:35;;;;;;;6.45;1.45;;;;;;;3.44;77.91;97990.53;4185766;28;20045;-71
2022/02/02 06:34:37;;;;;;;8.20;1.65;;;;;;;3.52;76.86;97991.53;4185736;28;20367;-71
2022/02/02 06:36:38;;;;;;;3.43;1.60;;;;;;;3.50;77.12;97997.34;4184782;28;20052;-71
2022/02/02 06:38:39;;;;;;;3.65;1.20;;;;;;;3.45;77.06;97989.38;4185083;28;20098;-71
2022/02/02 06:40:40;;;;;;;9.15;1.70;;;;;;;3.41;77.38;98004.09;4185744;28;20570;-71
2022/02/02 06:42:42;;;;;;;4.32;1.40;;;;;;;3.43;75.62;97982.66;4185109;28;20036;-71
2022/02/02 06:44:43;;;;;;;4.85;1.38;;;;;;;3.49;75.28;98008.66;4184957;28;20147;-71
2022/02/02 06:46:46;;;;;;;5.72;1.80;;;;;;;3.43;76.03;97990.88;4184062;28;20147;-72
2022/02/02 06:48:46;;;;;;;;;;;;;;;3.45;75.20;98000.31;4188329;28;20399;-72
2022/02/02 06:51:00;;;;;;;3.70;1.50;;;;;;;3.41;75.04;97998.63;4188223;28;19921;-71
2022/02/02 06:55:50;;;;;;;8.45;1.73;;;;;;;3.35;76.40;98011.72;4179880;28;20055;-72
2022/02/02 06:58:26;;;;;;;6.65;1.77;;;;;;;3.41;76.70;98023.25;4186744;28;20098;-72
2022/02/02 07:03:35;;;;;;;7.30;2.00;;;;;;;3.28;78.54;98025.16;4175040;28;20045;-71
2022/02/02 07:05:49;;;;;;;8.18;2.13;;;;;;;3.23;78.80;98015.25;4187057;28;20036;-71
2022/02/02 07:09:21;;;;;;;12.52;1.95;;;;;;;3.25;78.79;98020.38;4187265;28;20045;-71
2022/02/02 07:15:53;;;;;;;6.70;2.42;;;;;;;3.15;81.00;98032.56;4187470;28;20036;-71
2022/02/02 07:18:15;;;;;;;4.68;1.80;;;;;;;3.19;80.91;98038.94;4187396;28;20053;-71
2022/02/02 07:25:58;;;;;;;7.70;2.47;;;;;;;3.16;81.29;98034.16;4167241;28;20119;-72
2022/02/02 07:28:07;;;;;;;4.25;1.42;;;;;;;3.18;80.93;98072.09;4163933;28;20106;-72
2022/02/02 07:34:28;;;;;;;8.02;2.25;;;;;;;3.17;81.22;98062.28;4188413;28;20029;-72
2022/02/02 07:36:32;;;;;;;12.35;2.60;;;;;;;3.15;81.04;98050.91;4187516;28;20205;-72
2022/02/02 07:38:52;;;;;;;13.55;3.15;;;;;;;3.10;81.44;98065.56;4187391;28;20040;-72
2022/02/02 07:41:04;;;;;;;12.90;4.70;;;;;;;3.09;81.10;98072.19;4188126;28;20056;-72
2022/02/02 07:43:09;;;;;;;13.25;3.92;;;;;;;3.10;80.13;98076.50;4187443;28;20048;-72
2022/02/02 07:45:11;;;;;;;6.85;2.50;;;;;;;3.13;78.51;98069.56;4187781;28;20789;-72
2022/02/02 07:47:15;;;;;;;8.38;2.30;;;;;;;3.12;78.61;98087.91;4187120;28;20079;-72
2022/02/02 07:49:17;;;;;;;7.07;1.67;;;;;;;3.18;77.92;98088.47;4187601;28;20433;-71
2022/02/02 07:51:18;;;;;;;12.73;2.13;;;;;;;3.19;77.28;98096.34;4187182;28;20386;-72
2022/02/02 07:53:23;;;;;;;6.75;1.98;;;;;;;3.18;76.59;98102.16;4187774;28;20048;-71
2022/02/02 07:55:27;;;;;;;4.93;1.90;;;;;;;3.19;77.25;98092.81;4187662;28;20085;-71
2022/02/02 07:57:28;;;;;;;14.65;2.38;;;;;;;3.21;76.47;98121.41;4187059;28;20506;-71
2022/02/02 07:59:46;;;;;;;8.82;2.13;;;;;;;3.34;75.98;98100.38;4187339;28;20151;-71
2022/02/02 08:01:49;;;;;;;8.40;2.25;;;;;;;3.32;75.80;98108.91;4187751;28;20040;-72
2022/02/02 08:03:54;;;;;;;12.27;2.05;;;;;;;3.30;75.95;98124.03;4187776;28;20063;-72
2022/02/02 08:05:55;;;;;;;10.38;2.30;;;;;;;3.27;76.71;98128.25;4187121;28;20072;-72
2022/02/02 08:08:11;;;;;;;10.60;2.10;;;;;;;3.28;75.66;98143.53;4186437;28;20519;-71
2022/02/02 08:10:19;;;;;;;9.65;2.67;;;;;;;3.25;75.82;98137.94;4187174;28;20044;-71
2022/02/02 08:12:20;;;;;;;15.32;2.40;;;;;;;3.21;76.66;98139.75;4187356;28;20062;-71
2022/02/02 08:14:22;;;;;;;8.27;2.92;;;;;;;3.17;77.42;98144.31;4187495;28;20048;-71
2022/02/02 08:16:23;;;;;;;7.47;2.65;;;;;;;3.18;76.99;98141.22;4187036;28;20049;-71
2022/02/02 08:18:24;;;;;;;8.45;2.72;;;;;;;3.15;77.03;98146.59;4186537;28;20047;-71
2022/02/02 08:20:25;;;;;;;11.90;3.30;;;;;;;3.20;77.15;98140.88;4186666;28;20048;-71
2022/02/02 08:22:29;;;;;;;11.10;2.67;;;;;;;3.24;76.01;98141.81;4187458;28;20044;-71
2022/02/02 08:24:29;;;;;;;10.82;3.08;;;;;;;3.22;75.31;98150.34;4187057;28;20140;-71
2022/02/02 08:26:31;;;;;;;14.23;3.42;;;;;;;3.20;75.64;98154.56;4186891;28;20076;-71
2022/02/02 08:28:31;;;;;;;9.38;3.35;;;;;;;3.21;75.75;98154.22;4186448;28;20086;-71
2022/02/02 08:30:32;;;;;;;11.82;2.75;;;;;;;3.31;74.38;98161.19;4187300;28;20446;-72
2022/02/02 08:32:40;;;;;;;13.75;2.78;;;;;;;3.32;74.67;98173.75;4185490;28;20048;-71
2022/02/02 08:34:46;;;;;;;12.40;3.17;;;;;;;3.34;74.36;98169.53;4186468;28;20111;-72
2022/02/02 08:36:51;;;;;;;9.65;2.97;;;;;;;3.39;73.90;98171.22;4185856;28;20449;-72
2022/02/02 08:39:00;;;;;;;12.50;2.55;;;;;;;3.48;73.44;98185.63;4187152;28;20291;-72
2022/02/02 08:41:18;;;;;;;8.55;2.47;;;;;;;3.47;74.22;98170.34;4186350;28;20052;-72
2022/02/02 08:43:26;;;;;;;13.43;2.95;;;;;;;3.45;73.46;98180.03;4186759;28;20053;-71
2022/02/02 08:45:31;;;;;;;5.45;1.65;;;;;;;3.51;72.76;98179.47;4186625;28;20040;-72
2022/02/02 08:47:33;;;;;;;11.73;2.67;;;;;;;3.50;73.39;98172.41;4186196;28;20071;-71
2022/02/02 08:49:39;;;;;;;6.13;2.50;;;;;;;3.52;73.21;98177.53;4186596;28;20097;-72
2022/02/02 08:51:43;;;;;;;5.13;1.88;;;;;;;3.53;72.21;98177.19;4186647;28;20044;-71
2022/02/02 08:58:19;;;;;;;8.50;2.20;;;;;;;3.55;71.35;98171.38;4185720;28;20071;-71
2022/02/02 09:00:23;;;;;;;7.47;2.38;;;;;;;3.54;72.34;98167.06;4186000;28;20420;-72
2022/02/02 09:02:29;;;;;;;8.88;2.30;;;;;;;3.55;72.14;98179.59;4186841;28;20182;-72
2022/02/02 09:06:48;;;;;;;10.73;2.35;;;;;;;3.65;72.50;98182.72;4186321;28;20817;-72
2022/02/02 09:08:51;;;;;;;11.35;2.30;;;;;;;3.74;72.94;98181.81;4186612;28;20032;-72
2022/02/02 09:24:33;;;;;;;17.27;5.70;;;;;;;3.93;73.88;98196.53;4185644;28;20032;-72
2022/02/02 09:35:55;;;;;;;12.65;2.85;;;;;;;3.99;72.90;98229.16;4162403;28;20086;-71
2022/02/02 09:37:55;;;;;;;8.43;2.17;;;;;;;3.97;72.82;98236.88;4185530;28;20076;-71
2022/02/02 09:42:18;;;;;;;5.13;2.22;;;;;;;3.98;73.24;98239.31;4185895;28;20102;-71
2022/02/02 09:44:24;;;;;;;10.35;2.85;;;;;;;3.97;72.50;98243.16;4185000;28;20036;-72
2022/02/02 09:46:30;;;;;;;12.10;1.88;;;;;;;4.04;73.47;98239.88;4185496;28;20105;-72
2022/02/02 09:48:36;;;;;;;12.45;2.42;;;;;;;3.97;72.51;98239.63;4185298;28;20036;-72
2022/02/02 09:50:45;;;;;;;9.50;3.45;;;;;;;3.91;73.24;98247.28;4185856;28;20062;-72
2022/02/02 09:52:53;;;;;;;9.73;2.58;;;;;;;3.88;73.67;98231.53;4186186;28;20036;-72
2022/02/02 09:55:15;;;;;;;11.82;2.80;;;;;;;3.91;73.52;98245.34;4186188;28;20043;-72
2022/02/02 09:57:44;;;;;;;7.78;2.67;;;;;;;3.91;73.82;98255.50;4185065;28;20496;-72
2022/02/02 09:59:56;;;;;;;13.27;3.15;;;;;;;3.95;73.26;98256.41;4186001;28;20130;-71
2022/02/02 10:10:57;;;;;;;12.95;2.35;;;;;;;4.04;72.16;98287.22;4185733;28;20048;-72
2022/02/02 10:15:33;;;;;;;10.25;2.30;;;;;;;3.98;72.50;98277.63;4185515;28;20448;-72
2022/02/02 10:17:34;;;;;;;7.35;2.60;;;;;;;4.08;71.71;98284.59;4184859;28;20498;-72
2022/02/02 10:19:36;;;;;;;14.85;3.55;;;;;;;4.06;72.46;98295.09;4185654;28;20549;-72
2022/02/02 10:21:37;;;;;;;9.10;3.10;;;;;;;4.16;71.98;98303.66;4186097;28;20041;-72
2022/02/02 10:23:38;;;;;;;9.43;3.15;;;;;;;4.09;72.37;98303.44;4187584;28;20045;-72
2022/02/02 10:25:43;;;;;;;14.90;4.30;;;;;;;4.07;71.37;98296.69;4188756;28;20057;-72
2022/02/02 10:27:46;;;;;;;11.07;3.95;;;;;;;4.14;71.84;98284.06;4188214;28;20060;-72
2022/02/02 10:29:46;;;;;;;14.77;3.03;;;;;;;4.16;72.65;98294.66;4188955;28;20060;-72
2022/02/02 10:31:50;;;;;;;9.10;2.13;;;;;;;4.18;72.05;98287.69;4188640;28;20194;-71
2022/02/02 10:33:50;;;;;;;12.32;4.60;;;;;;;4.26;72.75;98296.16;4189051;28;20045;-71
2022/02/02 10:35:53;;;;;;;12.02;3.35;;;;;;;4.29;73.09;98298.19;4187294;28;20485;-71
2022/02/02 10:38:01;;;;;;;13.00;2.30;;;;;;;4.32;71.69;98311.22;4187864;28;20044;-71
2022/02/02 10:40:03;;;;;;;12.18;3.25;;;;;;;4.28;71.37;98307.56;4188391;28;20469;-71
2022/02/02 10:42:03;;;;;;;14.45;2.70;;;;;;;4.28;71.73;98308.34;4188667;28;20366;-71
2022/02/02 10:44:16;;;;;;;11.18;2.83;;;;;;;4.36;71.53;98312.94;4188934;28;20295;-71
2022/02/02 10:46:34;;;;;;;16.63;2.90;;;;;;;4.28;71.72;98316.56;4188118;28;20032;-71
2022/02/02 10:48:41;;;;;;;10.75;2.88;;;;;;;4.30;70.99;98308.00;4188621;28;20159;-71
2022/02/02 10:50:51;;;;;;;7.95;2.20;;;;;;;4.38;71.72;98321.59;4188664;28;20052;-71
2022/02/02 10:53:24;;;;;;;9.60;2.38;;;;;;;4.26;71.53;98329.81;4188760;28;20052;-71
2022/02/02 11:00:25;;;;;;;11.05;4.22;;;;;;;4.18;73.63;98320.56;4161269;28;20360;-71
2022/02/02 11:07:05;;;;;;;16.77;3.15;;;;;;;4.00;74.20;98334.78;4187483;28;20059;-71
2022/02/02 11:09:07;;;;;;;13.50;3.30;;;;;;;4.03;74.49;98332.16;4188739;28;20059;-71
2022/02/02 11:11:10;;;;;;;14.13;3.25;;;;;;;4.13;74.35;98352.81;4188154;28;20047;-71
2022/02/02 11:13:12;;;;;;;8.35;1.90;;;;;;;4.21;73.82;98355.47;4188123;28;20492;-71
2022/02/02 11:15:40;;;;;;;19.40;2.65;;;;;;;4.19;73.65;98368.72;4187914;28;20076;-71
2022/02/02 11:17:52;;;;;;;12.38;2.20;;;;;;;4.14;74.42;98390.03;4187447;28;20135;-71
2022/02/02 11:19:56;;;;;;;11.98;2.65;;;;;;;4.10;74.72;98361.72;4188268;28;20064;-71
2022/02/02 11:22:30;;;;;;;15.73;2.33;;;;;;;4.17;73.49;98361.97;4188022;28;20043;-71
2022/02/02 11:24:37;;;;;;;11.73;2.15;;;;;;;4.22;72.55;98365.31;4188208;28;20331;-71
2022/02/02 11:26:46;;;;;;;7.55;1.90;;;;;;;4.25;71.50;98366.56;4187155;28;20090;-71
2022/02/02 11:28:49;;;;;;;10.25;1.77;;;;;;;4.38;71.30;98370.09;4188236;28;20052;-71
2022/02/02 11:30:50;;;;;;;9.10;1.67;;;;;;;4.43;70.13;98373.44;4187743;28;20768;-71
2022/02/02 11:32:53;;;;;;;12.13;2.20;;;;;;;4.47;69.42;98366.16;4187803;28;20093;-71
2022/02/02 11:35:27;;;;;;;4.22;1.75;;;;;;;4.45;68.96;98370.34;4187295;28;20442;-71
2022/02/02 11:37:59;;;;;;;11.10;2.80;;;;;;;4.54;69.04;98373.78;4186913;28;20060;-71
2022/02/02 11:40:08;;;;;;;7.00;2.08;;;;;;;4.45;70.25;98367.63;4187686;28;20059;-71
2022/02/02 11:42:55;;;;;;;12.00;3.63;;;;;;;4.41;70.46;98381.19;4187506;28;20531;-71
2022/02/02 11:45:07;;;;;;;14.95;4.95;;;;;;;4.45;71.20;98389.53;4187599;28;20304;-71
2022/02/02 11:49:21;;;;;;;6.05;2.65;;;;;;;4.12;75.90;98404.06;4187874;28;20551;-71
2022/02/02 11:51:57;;;;;;;12.38;3.17;;;;;;;4.08;74.24;98405.06;4188070;28;20480;-71
2022/02/02 11:54:01;;;;;;;8.27;1.83;;;;;;;4.09;74.29;98391.03;4187615;28;20087;-71
2022/02/02 11:56:05;;;;;;;7.75;2.95;;;;;;;4.11;75.58;98407.94;4187055;28;20072;-72
2022/02/02 11:58:20;;;;;;;6.07;2.97;;;;;;;4.25;71.08;98388.47;4186464;28;20025;-72
2022/02/02 12:00:32;;;;;;;10.65;2.90;;;;;;;4.36;73.30;98418.97;4186672;28;20090;-72
2022/02/02 12:02:55;;;;;;;8.38;3.15;;;;;;;4.35;71.81;98409.94;4187386;28;20049;-72
2022/02/02 12:05:18;;;;;;;6.82;2.45;;;;;;;4.40;73.01;98409.75;4187596;28;20055;-72
2022/02/02 12:07:57;;;;;;;6.70;2.53;;;;;;;4.44;70.96;98402.44;4186425;28;20882;-72
2022/02/02 12:09:59;;;;;;;5.70;1.80;;;;;;;4.52;70.00;98403.47;4187219;28;20052;-72
2022/02/02 12:19:09;;;;;;;6.65;2.10;;;;;;;4.67;67.25;98421.19;4186658;28;20301;-72
2022/02/02 12:49:21;;;;;;;7.43;2.22;;;;;;;4.14;76.81;98442.06;4186171;28;20668;-72
2022/02/02 12:54:12;;;;;;;8.57;2.08;;;;;;;4.38;75.94;98444.88;4186935;28;20109;-72
2022/02/02 12:56:35;;;;;;;7.07;2.40;;;;;;;4.48;75.68;98449.16;4185667;28;20166;-72
2022/02/02 12:58:37;;;;;;;8.98;3.13;;;;;;;4.65;74.42;98457.19;4186352;28;20527;-72
2022/02/02 13:01:07;;;;;;;11.57;2.67;;;;;;;4.69;74.19;98435.34;4186617;28;20147;-72
2022/02/02 13:03:01;;;;;;;;;;;;;;;4.84;74.29;98434.69;4186690;28;20059;-72
2022/02/02 13:05:02;;;;;;;11.18;2.33;;;;;;;5.01;74.17;98444.66;4187219;28;20188;-71
2022/02/02 13:07:13;;;;;;;8.20;2.38;;;;;;;5.10;74.29;98450.03;4185736;28;20438;-71
2022/02/02 13:09:14;;;;;;;9.43;3.20;;;;;;;5.10;73.48;98464.53;4186743;28;20036;-71
2022/02/02 13:11:22;;;;;;;6.65;2.35;;;;;;;5.18;74.56;98482.03;4185730;28;20040;-71
2022/02/02 13:13:26;;;;;;;5.97;2.15;;;;;;;5.06;74.69;98486.38;4186622;28;20110;-71
2022/02/02 13:20:12;;;;;;;11.38;3.85;;;;;;;4.57;79.10;98490.16;4163202;28;20439;-71
2022/02/02 13:22:17;;;;;;;9.55;3.15;;;;;;;4.17;80.19;98524.34;4186587;28;20472;-71
2022/02/02 13:24:22;;;;;;;6.70;2.42;;;;;;;3.69;83.68;98507.63;4185781;28;20027;-71
2022/02/02 13:26:35;;;;;;;9.65;2.55;;;;;;;3.36;88.24;98521.97;4186055;28;20131;-71
2022/02/02 13:29:02;;;;;;;8.77;2.70;;;;;;;3.17;91.93;98511.44;4186455;28;20400;-71
2022/02/02 13:31:03;;;;;;;12.80;3.95;;;;;;;3.16;91.51;98515.31;4185267;28;20071;-71
2022/02/02 13:33:13;;;;;;;6.68;2.05;;;;;;;3.18;92.98;98515.78;4186056;28;20048;-71
2022/02/02 13:35:25;;;;;;;4.97;2.17;;;;;;;3.24;92.47;98530.88;4186349;28;20048;-71
2022/02/02 13:42:37;;;;;;;9.45;2.72;;;;;;;3.50;86.49;98535.41;4186016;28;20471;-71
2022/02/02 13:45:12;;;;;;;6.97;2.60;;;;;;;3.67;84.08;98540.78;4134270;28;20104;-72
2022/02/02 13:49:49;;;;;;;8.20;3.22;;;;;;;3.77;83.17;98556.81;4185989;28;20522;-72
2022/02/02 13:52:09;;;;;;;14.50;5.80;;;;;;;3.87;82.80;98559.16;4186365;28;20092;-72
2022/02/02 14:01:03;;;;;;;8.38;2.38;;;;;;;4.06;77.20;98560.69;4189347;28;20091;-72
2022/02/02 14:10:39;;;;;;;;;;;;;;;4.26;75.52;98575.50;4160374;28;20538;-72
2022/02/02 14:31:15;;;;;;;8.68;2.60;;;;;;;4.11;72.30;98582.38;4188663;28;20059;-71
2022/02/02 14:33:15;;;;;;;9.00;2.40;;;;;;;4.08;72.81;98600.28;4188770;28;20044;-71
2022/02/02 14:35:18;;;;;;;8.00;2.15;;;;;;;4.15;72.45;98600.56;4188941;28;20320;-71
2022/02/02 14:37:24;;;;;;;8.77;2.55;;;;;;;4.17;72.62;98597.47;4187830;28;20044;-71
2022/02/02 14:39:38;;;;;;;6.63;2.00;;;;;;;4.16;72.73;98606.84;4189413;28;20068;-71
2022/02/02 14:44:09;;;;;;;8.27;1.90;;;;;;;4.26;71.73;98613.84;4188952;28;20041;-71
2022/02/02 14:46:05;;;;;;;12.35;2.35;;;;;;;4.21;72.34;98614.84;4187814;28;20072;-71
2022/02/02 14:48:13;;;;;;;6.18;2.20;;;;;;;4.17;72.21;98622.94;4187941;28;20063;-71
2022/02/02 14:50:27;;;;;;;15.43;3.35;;;;;;;4.07;74.97;98628.00;4188405;28;20149;-71
2022/02/02 15:29:13;;;;;;;7.03;3.85;;;;;;;2.97;97.86;98737.06;4187857;28;20049;-71
2022/02/02 15:31:14;;;;;;;12.20;3.45;;;;;;;2.88;97.78;98735.47;4188331;28;20072;-71
2022/02/02 15:33:20;;;;;;;7.07;3.00;;;;;;;2.92;98.17;98752.84;4187441;28;20051;-72
2022/02/02 15:35:21;;;;;;;12.68;2.78;;;;;;;2.93;97.01;98744.31;4187719;28;20049;-72
2022/02/02 15:37:41;;;;;;;7.78;2.65;;;;;;;2.75;98.38;98746.25;4186635;28;20057;-72
2022/02/02 15:39:47;;;;;;;8.35;2.60;;;;;;;2.78;98.91;98742.88;4186679;28;20040;-72
2022/02/02 15:56:05;;;;;;;4.97;2.03;;;;;;;2.98;93.96;98773.41;4187107;28;20238;-71
2022/02/02 16:00:54;;;;;;;5.13;1.83;;;;;;;2.96;93.88;98790.13;4187035;28;20045;-71
2022/02/02 16:04:35;;;;;;;9.00;2.67;;;;;;;2.97;95.01;98790.94;4185361;28;20044;-71
2022/02/02 16:06:35;;;;;;;6.82;2.00;;;;;;;2.92;94.89;98802.06;4186229;28;20044;-72
2022/02/02 16:08:38;;;;;;;8.35;2.38;;;;;;;2.86;95.30;98792.38;4186977;28;20553;-72
2022/02/02 16:12:57;;;;;;;6.72;2.70;;;;;;;2.78;96.00;98800.25;4187139;28;20139;-72
2022/02/02 16:15:15;;;;;;;4.78;1.90;;;;;;;2.77;97.20;98812.31;4186807;28;20466;-72
2022/02/02 16:17:44;;;;;;;5.10;2.63;;;;;;;2.75;97.00;98805.56;4185928;28;20044;-72
2022/02/02 16:24:44;;;;;;;7.55;2.70;;;;;;;2.81;96.56;98798.78;4185472;28;20059;-72
2022/02/02 16:31:34;;;;;;;6.68;2.92;;;;;;;2.72;94.24;98815.19;4185447;28;20123;-71
2022/02/02 16:36:07;;;;;;;9.43;3.08;;;;;;;2.71;93.41;98832.69;4186280;28;20048;-71
2022/02/02 16:38:12;;;;;;;8.48;3.85;;;;;;;2.67;93.94;98839.94;4185314;28;20350;-71
2022/02/02 16:40:17;;;;;;;7.13;2.63;;;;;;;2.67;93.34;98837.19;4186470;28;20059;-72
2022/02/02 16:44:36;;;;;;;6.32;2.20;;;;;;;2.67;92.66;98853.59;4186614;28;20158;-72
2022/02/02 16:46:36;;;;;;;9.65;2.60;;;;;;;2.66;92.80;98860.19;4185853;28;20048;-72
2022/02/02 16:48:36;;;;;;;8.35;2.47;;;;;;;2.65;92.57;98858.56;4185840;28;20159;-72
2022/02/02 16:50:41;;;;;;;5.78;1.98;;;;;;;2.66;92.71;98871.09;4185846;28;20532;-72
2022/02/02 16:52:41;;;;;;;7.15;2.35;;;;;;;2.62;92.61;98864.66;4186040;28;20036;-72
2022/02/02 16:54:44;;;;;;;9.70;4.93;;;;;;;2.72;91.89;98861.63;4186434;28;20384;-72
2022/02/02 16:57:03;;;;;;;11.95;4.25;;;;;;;2.77;92.04;98852.50;4185125;28;20112;-72
2022/02/02 17:25:10;;;;;;;11.15;3.90;;;;;;;2.74;93.84;98885.91;4185974;28;20047;-71
2022/02/02 17:31:01;;;;;;;8.73;3.05;;;;;;;2.86;89.29;98897.03;4186869;28;20461;-72
2022/02/02 17:33:09;;;;;;;6.40;2.60;;;;;;;2.95;88.06;98891.59;4185323;28;20434;-71
2022/02/02 17:36:18;;;;;;;7.32;2.58;;;;;;;2.97;87.52;98892.06;4184632;28;20639;-71
2022/02/02 17:38:09;;;;;;;9.00;2.63;;;;;;;2.92;88.10;98895.78;4165812;28;20453;-71